createdAt,value
2022-11-27T00:02:19.356Z,2.64
2022-11-27T00:04:51.471Z,2.66
2022-11-27T00:07:23.419Z,2.66
2022-11-27T00:09:55.366Z,2.66
2022-11-27T00:12:27.252Z,2.64
2022-11-27T00:14:59.253Z,2.65
2022-11-27T00:17:31.232Z,2.66
2022-11-27T00:20:03.141Z,2.63
2022-11-27T00:22:35.080Z,2.61
2022-11-27T00:25:09.957Z,2.62
2022-11-27T00:27:41.901Z,2.64
2022-11-27T00:30:15.971Z,2.62
2022-11-27T00:32:48.234Z,2.61
2022-11-27T00:35:20.355Z,2.63
2022-11-27T00:37:52.317Z,2.66
2022-11-27T00:40:24.208Z,2.62
2022-11-27T00:42:56.140Z,2.57
2022-11-27T00:45:28.152Z,2.55
2022-11-27T00:48:00.144Z,2.56
2022-11-27T00:50:32.489Z,2.54
2022-11-27T00:53:04.481Z,2.46
2022-11-27T00:55:36.442Z,2.37
2022-11-27T00:58:08.403Z,2.36
2022-11-27T01:00:40.393Z,2.40
2022-11-27T01:03:12.643Z,2.40
2022-11-27T01:05:44.997Z,2.41
2022-11-27T01:08:16.975Z,2.40
2022-11-27T01:10:54.936Z,2.45
2022-11-27T01:13:29.989Z,2.44
2022-11-27T01:16:03.290Z,2.41
2022-11-27T01:18:36.554Z,2.44
2022-11-27T01:21:09.106Z,2.46
2022-11-27T01:23:41.507Z,2.43
2022-11-27T01:26:13.903Z,2.41
2022-11-27T01:28:46.869Z,2.37
2022-11-27T01:31:20.816Z,2.36
2022-11-27T01:33:55.964Z,2.39
2022-11-27T01:36:28.617Z,2.39
2022-11-27T01:39:01.046Z,2.36
2022-11-27T01:41:35.236Z,2.36
2022-11-27T01:44:44.393Z,2.36
2022-11-27T01:47:24.114Z,2.37
2022-11-27T01:49:59.867Z,2.39
2022-11-27T01:52:36.617Z,2.44
2022-11-27T01:55:13.879Z,2.48
2022-11-27T01:57:49.632Z,2.53
2022-11-27T02:00:22.613Z,2.52
2022-11-27T02:02:55.161Z,2.50
2022-11-27T02:05:29.340Z,2.50
2022-11-27T02:08:04.225Z,2.57
2022-11-27T02:10:42.428Z,2.59
2022-11-27T02:13:19.050Z,2.60
2022-11-27T02:15:57.524Z,2.65
2022-11-27T02:18:38.594Z,2.69
2022-11-27T02:21:18.469Z,2.73
2022-11-27T02:24:08.990Z,2.72
2022-11-27T02:27:04.654Z,2.64
2022-11-27T02:29:37.877Z,2.64
2022-11-27T02:32:17.010Z,2.64
2022-11-27T02:34:56.272Z,2.63
2022-11-27T02:37:35.635Z,2.61
2022-11-27T02:40:13.866Z,2.60
2022-11-27T02:42:50.387Z,2.68
2022-11-27T02:45:29.340Z,2.72
2022-11-27T02:48:02.378Z,2.74
2022-11-27T02:50:37.216Z,2.74
2022-11-27T02:53:13.653Z,2.75
2022-11-27T02:55:47.894Z,2.75
2022-11-27T02:58:23.978Z,2.73
2022-11-27T03:00:58.732Z,2.74
2022-11-27T03:03:35.432Z,2.72
2022-11-27T03:06:12.950Z,2.72
2022-11-27T03:08:53.468Z,2.70
2022-11-27T03:11:27.808Z,2.68
2022-11-27T03:14:04.409Z,2.64
2022-11-27T03:16:43.998Z,2.61
2022-11-27T03:19:21.057Z,2.68
2022-11-27T03:21:57.144Z,2.70
2022-11-27T03:24:30.360Z,2.75
2022-11-27T03:27:02.862Z,2.80
2022-11-27T03:29:39.689Z,2.84
2022-11-27T03:32:12.316Z,2.88
2022-11-27T03:34:44.564Z,2.89
2022-11-27T03:37:16.832Z,2.89
2022-11-27T03:39:49.097Z,2.88
2022-11-27T03:42:28.003Z,2.87
2022-11-27T03:45:08.159Z,2.86
2022-11-27T03:47:55.816Z,2.86
2022-11-27T03:50:41.936Z,2.82
2022-11-27T03:53:25.984Z,2.85
2022-11-27T03:56:09.770Z,2.93
2022-11-27T03:58:48.270Z,2.96
2022-11-27T04:01:24.619Z,2.97
2022-11-27T04:03:56.654Z,2.97
2022-11-27T04:06:28.687Z,3.03
2022-11-27T04:09:00.655Z,3.06
2022-11-27T04:11:32.691Z,3.02
2022-11-27T04:14:05.243Z,3.00
2022-11-27T04:16:37.280Z,2.96
2022-11-27T04:19:09.638Z,2.92
2022-11-27T04:21:41.568Z,2.90
2022-11-27T04:24:13.481Z,2.86
2022-11-27T04:26:45.418Z,2.85
2022-11-27T04:29:18.011Z,2.92
2022-11-27T04:31:50.080Z,2.95
2022-11-27T04:34:22.179Z,2.98
2022-11-27T04:36:54.143Z,3.00
2022-11-27T04:39:26.028Z,2.99
2022-11-27T04:41:58.043Z,3.00
2022-11-27T04:44:30.006Z,3.02
2022-11-27T04:47:02.775Z,3.03
2022-11-27T04:49:34.885Z,3.05
2022-11-27T04:52:07.366Z,3.07
2022-11-27T04:54:39.746Z,3.08
2022-11-27T04:57:11.909Z,3.07
2022-11-27T04:59:44.199Z,3.06
2022-11-27T05:02:16.185Z,3.07
2022-11-27T05:04:48.273Z,3.14
2022-11-27T05:07:20.264Z,3.16
2022-11-27T05:09:52.380Z,3.18
2022-11-27T05:12:24.369Z,3.20
2022-11-27T05:14:57.961Z,3.21
2022-11-27T05:17:32.676Z,3.25
2022-11-27T05:20:04.996Z,3.24
2022-11-27T05:22:37.010Z,3.25
2022-11-27T05:25:13.178Z,3.26
2022-11-27T05:27:45.058Z,3.25
2022-11-27T05:30:17.329Z,3.23
2022-11-27T05:32:49.294Z,3.21
2022-11-27T05:35:21.179Z,3.19
2022-11-27T05:37:53.118Z,3.20
2022-11-27T05:40:25.028Z,3.24
2022-11-27T05:42:56.991Z,3.25
2022-11-27T05:45:29.057Z,3.28
2022-11-27T05:48:00.996Z,3.30
2022-11-27T05:50:33.191Z,3.33
2022-11-27T05:53:05.155Z,3.35
2022-11-27T05:55:37.039Z,3.34
2022-11-27T05:58:09.028Z,3.34
2022-11-27T06:00:40.999Z,3.33
2022-11-27T06:03:13.396Z,3.32
2022-11-27T06:05:45.380Z,3.30
2022-11-27T06:08:17.317Z,3.29
2022-11-27T06:10:50.295Z,3.26
2022-11-27T06:13:22.217Z,3.22
2022-11-27T06:15:54.107Z,3.26
2022-11-27T06:18:26.094Z,3.28
2022-11-27T06:20:58.004Z,3.30
2022-11-27T06:23:30.300Z,3.32
2022-11-27T06:26:10.251Z,3.32
2022-11-27T06:28:42.650Z,3.32
2022-11-27T06:31:18.297Z,3.27
2022-11-27T06:33:51.696Z,3.26
2022-11-27T06:36:24.608Z,3.22
2022-11-27T06:38:57.035Z,3.19
2022-11-27T06:41:29.311Z,3.18
2022-11-27T06:44:03.392Z,3.19
2022-11-27T06:46:35.260Z,3.20
2022-11-27T06:49:07.394Z,3.25
2022-11-27T06:51:39.308Z,3.29
2022-11-27T06:54:11.192Z,3.30
2022-11-27T06:56:43.258Z,3.32
2022-11-27T06:59:15.682Z,3.34
2022-11-27T07:01:47.880Z,3.38
2022-11-27T07:04:19.846Z,3.39
2022-11-27T07:06:51.829Z,3.38
2022-11-27T07:09:23.845Z,3.33
2022-11-27T07:11:55.760Z,3.25
2022-11-27T07:14:27.694Z,3.21
2022-11-27T07:16:59.632Z,3.20
2022-11-27T07:19:31.909Z,3.19
2022-11-27T07:22:03.789Z,3.22
2022-11-27T07:24:35.862Z,3.31
2022-11-27T07:27:08.766Z,3.34
2022-11-27T07:29:40.702Z,3.33
2022-11-27T07:32:12.595Z,3.36
2022-11-27T07:34:44.476Z,3.39
2022-11-27T07:37:16.465Z,3.39
2022-11-27T07:40:02.490Z,3.36
2022-11-27T07:42:39.200Z,3.31
2022-11-27T07:45:14.063Z,3.29
2022-11-27T07:47:46.283Z,3.25
2022-11-27T07:50:18.195Z,3.18
2022-11-27T07:52:50.110Z,3.12
2022-11-27T07:55:22.075Z,3.12
2022-11-27T07:57:54.061Z,3.18
2022-11-27T08:00:26.108Z,3.19
2022-11-27T08:02:58.116Z,3.17
2022-11-27T08:05:30.181Z,3.18
2022-11-27T08:08:05.039Z,3.19
2022-11-27T08:10:37.692Z,3.21
2022-11-27T08:13:09.937Z,3.24
2022-11-27T08:15:41.953Z,3.27
2022-11-27T08:18:13.893Z,3.32
2022-11-27T08:20:45.828Z,3.35
2022-11-27T08:23:17.715Z,3.36
2022-11-27T08:25:49.652Z,3.36
2022-11-27T08:28:21.948Z,3.38
2022-11-27T08:31:00.287Z,3.46
2022-11-27T08:33:33.324Z,3.45
2022-11-27T08:36:09.022Z,3.46
2022-11-27T08:38:43.215Z,3.44
2022-11-27T08:41:15.592Z,3.40
2022-11-27T08:43:47.582Z,3.36
2022-11-27T08:46:19.761Z,3.34
2022-11-27T08:48:51.999Z,3.34
2022-11-27T08:51:24.348Z,3.35
2022-11-27T08:53:56.278Z,3.35
2022-11-27T08:56:28.445Z,3.36
2022-11-27T08:59:00.434Z,3.38
2022-11-27T09:01:33.624Z,3.40
2022-11-27T09:04:06.412Z,3.51
2022-11-27T09:06:39.501Z,3.55
2022-11-27T09:09:11.763Z,3.58
2022-11-27T09:11:43.961Z,3.60
2022-11-27T09:14:15.850Z,3.59
2022-11-27T09:16:48.012Z,3.58
2022-11-27T09:19:21.703Z,3.53
2022-11-27T09:21:53.762Z,3.52
2022-11-27T09:24:26.061Z,3.54
2022-11-27T09:26:58.123Z,3.52
2022-11-27T09:29:30.318Z,3.51
2022-11-27T09:32:02.382Z,3.47
2022-11-27T09:34:37.461Z,3.44
2022-11-27T09:37:10.304Z,3.50
2022-11-27T09:39:42.159Z,3.55
2022-11-27T09:42:34.639Z,3.58
2022-11-27T09:45:12.975Z,3.64
2022-11-27T09:47:50.404Z,3.70
2022-11-27T09:50:27.249Z,3.76
2022-11-27T09:53:02.568Z,3.80
2022-11-27T09:55:39.027Z,3.78
2022-11-27T09:58:19.747Z,3.73
2022-11-27T10:00:51.813Z,3.69
2022-11-27T10:03:27.536Z,3.69
2022-11-27T10:06:15.860Z,3.72
2022-11-27T10:08:59.779Z,3.75
2022-11-27T10:11:36.247Z,3.80
2022-11-27T10:14:20.602Z,3.90
2022-11-27T10:16:56.926Z,3.95
2022-11-27T10:19:36.895Z,3.98
2022-11-27T10:22:21.032Z,3.98
2022-11-27T10:25:04.373Z,3.98
2022-11-27T10:27:45.148Z,3.95
2022-11-27T10:30:19.799Z,3.94
2022-11-27T10:32:57.099Z,3.94
2022-11-27T10:35:31.822Z,3.89
2022-11-27T10:38:12.094Z,3.84
2022-11-27T10:40:46.979Z,3.79
2022-11-27T10:43:22.298Z,3.75
2022-11-27T10:45:58.369Z,3.80
2022-11-27T10:48:30.475Z,3.77
2022-11-27T10:51:02.411Z,3.74
2022-11-27T10:53:36.573Z,3.73
2022-11-27T10:56:31.782Z,3.73
2022-11-27T10:59:07.584Z,3.71
2022-11-27T11:01:47.550Z,3.66
2022-11-27T11:04:43.012Z,3.67
2022-11-27T11:07:27.542Z,3.68
2022-11-27T11:09:59.650Z,3.68
2022-11-27T11:12:31.922Z,3.67
2022-11-27T11:15:11.862Z,3.64
2022-11-27T11:17:43.756Z,3.68
2022-11-27T11:20:22.481Z,3.70
2022-11-27T11:22:54.678Z,3.72
2022-11-27T11:25:26.698Z,3.76
2022-11-27T11:27:58.907Z,3.81
2022-11-27T11:30:31.715Z,3.85
2022-11-27T11:33:05.396Z,3.83
2022-11-27T11:35:38.617Z,3.79
2022-11-27T11:38:20.177Z,3.79
2022-11-27T11:41:02.563Z,3.80
2022-11-27T11:43:36.520Z,3.77
2022-11-27T11:46:18.332Z,3.75
2022-11-27T11:48:58.955Z,3.79
2022-11-27T11:52:00.743Z,3.78
2022-11-27T11:54:50.268Z,3.80
2022-11-27T11:57:42.994Z,3.83
2022-11-27T12:00:18.023Z,3.92
2022-11-27T12:03:09.678Z,4.01
2022-11-27T12:05:55.441Z,4.03
2022-11-27T12:08:40.484Z,4.03
2022-11-27T12:11:18.438Z,4.05
2022-11-27T12:14:07.070Z,4.02
2022-11-27T12:16:51.629Z,4.04
2022-11-27T12:19:48.703Z,4.05
2022-11-27T12:22:37.339Z,4.06
2022-11-27T12:25:27.117Z,4.08
2022-11-27T12:28:12.903Z,4.13
2022-11-27T12:30:50.886Z,4.14
2022-11-27T12:33:51.571Z,4.15
2022-11-27T12:36:34.770Z,4.18
2022-11-27T12:39:16.822Z,4.20
2022-11-27T12:42:00.201Z,4.25
2022-11-27T12:44:44.711Z,4.21
2022-11-27T12:47:23.944Z,4.24
2022-11-27T12:50:00.720Z,4.24
2022-11-27T12:52:38.905Z,4.22
2022-11-27T12:55:16.832Z,4.20
2022-11-27T12:57:53.690Z,4.22
2022-11-27T13:00:29.490Z,4.31
2022-11-27T13:03:08.337Z,4.35
2022-11-27T13:05:46.267Z,4.32
2022-11-27T13:08:22.968Z,4.29
2022-11-27T13:10:59.922Z,4.31
2022-11-27T13:13:38.618Z,4.34
2022-11-27T13:16:18.920Z,4.31
2022-11-27T13:18:55.934Z,4.24
2022-11-27T13:21:32.197Z,4.20
2022-11-27T13:24:05.086Z,4.18
2022-11-27T13:26:41.706Z,4.16
2022-11-27T13:29:22.886Z,4.16
2022-11-27T13:31:58.913Z,4.18
2022-11-27T13:34:34.005Z,4.22
2022-11-27T13:37:06.941Z,4.25
2022-11-27T13:39:43.359Z,4.27
2022-11-27T13:42:22.828Z,4.28
2022-11-27T13:44:59.447Z,4.28
2022-11-27T13:47:41.423Z,4.29
2022-11-27T13:50:16.993Z,4.31
2022-11-27T13:53:00.074Z,4.29
2022-11-27T13:55:34.083Z,4.23
2022-11-27T13:58:08.295Z,4.19
2022-11-27T14:00:43.360Z,4.14
2022-11-27T14:03:24.867Z,4.13
2022-11-27T14:05:57.248Z,4.18
2022-11-27T14:08:32.250Z,4.17
2022-11-27T14:11:04.982Z,4.15
2022-11-27T14:13:40.505Z,4.14
2022-11-27T14:16:26.655Z,4.17
2022-11-27T14:19:01.481Z,4.20
2022-11-27T14:21:41.355Z,4.23
2022-11-27T14:24:41.066Z,4.24
2022-11-27T14:27:22.685Z,4.24
2022-11-27T14:29:54.957Z,4.22
2022-11-27T14:32:39.079Z,4.16
2022-11-27T14:35:24.916Z,4.09
2022-11-27T14:38:08.351Z,4.05
2022-11-27T14:40:40.644Z,4.11
2022-11-27T14:43:16.614Z,4.10
2022-11-27T14:45:50.819Z,4.06
2022-11-27T14:48:26.301Z,4.05
2022-11-27T14:50:59.201Z,4.05
2022-11-27T14:53:31.496Z,4.06
2022-11-27T14:56:04.971Z,4.02
2022-11-27T14:58:38.571Z,3.97
2022-11-27T15:01:22.799Z,3.95
2022-11-27T15:04:03.951Z,3.92
2022-11-27T15:06:40.805Z,3.88
2022-11-27T15:09:31.793Z,3.87
2022-11-27T15:12:16.041Z,3.95
2022-11-27T15:14:57.886Z,4.01
2022-11-27T15:17:32.025Z,4.04
2022-11-27T15:20:12.000Z,4.08
2022-11-27T15:22:51.541Z,4.13
2022-11-27T15:25:38.917Z,4.17
2022-11-27T15:28:29.571Z,4.20
2022-11-27T15:31:01.886Z,4.22
2022-11-27T15:33:35.006Z,4.19
2022-11-27T15:36:20.180Z,4.17
2022-11-27T15:38:52.378Z,4.16
2022-11-27T15:41:26.717Z,4.14
2022-11-27T15:43:58.768Z,4.13
2022-11-27T15:46:35.737Z,4.22
2022-11-27T15:49:10.210Z,4.26
2022-11-27T15:51:42.427Z,4.22
2022-11-27T15:54:14.469Z,4.22
2022-11-27T15:56:47.103Z,4.21
2022-11-27T15:59:20.796Z,4.21
2022-11-27T16:01:53.002Z,4.25
2022-11-27T16:04:24.959Z,4.22
2022-11-27T16:06:56.987Z,4.19
2022-11-27T16:09:29.271Z,4.21
2022-11-27T16:12:01.211Z,4.21
2022-11-27T16:14:33.203Z,4.18
2022-11-27T16:17:05.091Z,4.17
2022-11-27T16:19:37.024Z,4.19
2022-11-27T16:22:09.017Z,4.19
2022-11-27T16:24:42.376Z,4.20
2022-11-27T16:27:14.653Z,4.20
2022-11-27T16:29:46.615Z,4.19
2022-11-27T16:32:18.549Z,4.20
2022-11-27T16:34:52.490Z,4.23
2022-11-27T16:37:25.093Z,4.25
2022-11-27T16:39:58.234Z,4.24
2022-11-27T16:42:30.239Z,4.23
2022-11-27T16:45:02.626Z,4.23
2022-11-27T16:47:34.634Z,4.21
2022-11-27T16:50:09.915Z,4.22
2022-11-27T16:52:42.276Z,4.29
2022-11-27T16:55:14.801Z,4.26
2022-11-27T16:57:47.280Z,4.21
2022-11-27T17:00:22.076Z,4.18
2022-11-27T17:02:54.054Z,4.20
2022-11-27T17:05:26.110Z,4.24
2022-11-27T17:07:58.219Z,4.29
2022-11-27T17:10:30.652Z,4.29
2022-11-27T17:13:02.746Z,4.28
2022-11-27T17:15:40.542Z,4.27
2022-11-27T17:18:13.865Z,4.26
2022-11-27T17:20:46.011Z,4.24
2022-11-27T17:23:18.302Z,4.22
2022-11-27T17:25:51.188Z,4.29
2022-11-27T17:28:23.714Z,4.28
2022-11-27T17:30:55.677Z,4.28
2022-11-27T17:33:28.283Z,4.31
2022-11-27T17:36:00.272Z,4.34
2022-11-27T17:38:32.734Z,4.39
2022-11-27T17:41:06.604Z,4.41
2022-11-27T17:43:40.947Z,4.40
2022-11-27T17:46:17.386Z,4.37
2022-11-27T17:48:50.890Z,4.36
2022-11-27T17:51:24.059Z,4.35
2022-11-27T17:53:56.788Z,4.34
2022-11-27T17:56:29.187Z,4.33
2022-11-27T17:59:01.586Z,4.36
2022-11-27T18:01:34.889Z,4.36
2022-11-27T18:04:07.605Z,4.38
2022-11-27T18:06:41.777Z,4.42
2022-11-27T18:09:14.765Z,4.46
2022-11-27T18:11:46.912Z,4.49
2022-11-27T18:14:19.099Z,4.53
2022-11-27T18:16:51.070Z,4.53
2022-11-27T18:19:23.622Z,4.54
2022-11-27T18:21:55.527Z,4.54
2022-11-27T18:24:27.722Z,4.54
2022-11-27T18:27:09.109Z,4.51
2022-11-27T18:29:44.832Z,4.49
2022-11-27T18:32:18.756Z,4.53
2022-11-27T18:34:52.804Z,4.50
2022-11-27T18:37:25.007Z,4.44
2022-11-27T18:39:57.064Z,4.42
2022-11-27T18:42:30.694Z,4.44
2022-11-27T18:45:03.988Z,4.47
2022-11-27T18:47:36.051Z,4.47
2022-11-27T18:50:10.705Z,4.46
2022-11-27T18:52:43.204Z,4.42
2022-11-27T18:55:15.170Z,4.39
2022-11-27T18:57:47.669Z,4.37
2022-11-27T19:00:21.426Z,4.36
2022-11-27T19:02:54.775Z,4.43
2022-11-27T19:05:27.040Z,4.45
2022-11-27T19:08:04.509Z,4.47
2022-11-27T19:10:36.520Z,4.48
2022-11-27T19:13:08.817Z,4.48
2022-11-27T19:15:42.857Z,4.50
2022-11-27T19:18:15.614Z,4.53
2022-11-27T19:20:49.114Z,4.50
2022-11-27T19:23:21.409Z,4.50
2022-11-27T19:25:53.756Z,4.51
2022-11-27T19:28:25.720Z,4.51
2022-11-27T19:30:57.785Z,4.51
2022-11-27T19:33:30.260Z,4.52
2022-11-27T19:36:04.244Z,4.57
2022-11-27T19:38:36.913Z,4.57
2022-11-27T19:41:13.831Z,4.57
2022-11-27T19:43:47.357Z,4.59
2022-11-27T19:46:21.640Z,4.60
2022-11-27T19:48:57.788Z,4.64
2022-11-27T19:51:33.195Z,4.68
2022-11-27T19:54:10.288Z,4.68
2022-11-27T19:56:44.248Z,4.68
2022-11-27T19:59:21.395Z,4.66
2022-11-27T20:01:58.456Z,4.64
2022-11-27T20:04:31.837Z,4.61
2022-11-27T20:07:03.888Z,4.57
2022-11-27T20:09:36.098Z,4.53
2022-11-27T20:12:09.069Z,4.54
2022-11-27T20:14:41.572Z,4.59
2022-11-27T20:17:13.830Z,4.58
2022-11-27T20:19:45.948Z,4.56
2022-11-27T20:22:17.964Z,4.56
2022-11-27T20:25:17.169Z,4.57
2022-11-27T20:27:42.322Z,4.60
2022-11-27T20:30:16.457Z,4.63
2022-11-27T20:32:48.578Z,4.61
2022-11-27T20:35:20.734Z,4.60
2022-11-27T20:37:52.733Z,4.57
2022-11-27T20:40:25.911Z,4.53
2022-11-27T20:42:57.966Z,4.49
2022-11-27T20:45:29.886Z,4.46
2022-11-27T20:48:02.275Z,4.44
2022-11-27T20:50:34.955Z,4.49
2022-11-27T20:53:08.480Z,4.46
2022-11-27T20:55:40.473Z,4.45
2022-11-27T20:58:13.944Z,4.47
2022-11-27T21:00:46.059Z,4.49
2022-11-27T21:03:18.639Z,4.52
2022-11-27T21:05:51.651Z,4.53
2022-11-27T21:08:24.823Z,4.50
2022-11-27T21:10:57.191Z,4.49
2022-11-27T21:13:29.257Z,4.45
2022-11-27T21:16:02.193Z,4.39
2022-11-27T21:18:34.113Z,4.34
2022-11-27T21:21:12.519Z,4.30
2022-11-27T21:23:44.681Z,4.34
2022-11-27T21:26:16.891Z,4.34
2022-11-27T21:28:50.399Z,4.34
2022-11-27T21:31:24.657Z,4.35
2022-11-27T21:33:58.686Z,4.37
2022-11-27T21:36:33.337Z,4.36
2022-11-27T21:39:08.653Z,4.34
2022-11-27T21:41:40.644Z,4.34
2022-11-27T21:44:13.375Z,4.33
2022-11-27T21:46:45.620Z,4.32
2022-11-27T21:49:19.351Z,4.33
2022-11-27T21:51:54.958Z,4.35
2022-11-27T21:54:34.049Z,4.42
2022-11-27T21:57:06.429Z,4.46
2022-11-27T21:59:38.725Z,4.48
2022-11-27T22:02:13.211Z,4.48
2022-11-27T22:04:45.350Z,4.49
2022-11-27T22:07:17.344Z,4.51
2022-11-27T22:09:49.323Z,4.49
2022-11-27T22:12:21.460Z,4.49
2022-11-27T22:14:53.499Z,4.49
2022-11-27T22:17:25.513Z,4.47
2022-11-27T22:19:57.889Z,4.44
2022-11-27T22:22:30.977Z,4.41
2022-11-27T22:25:04.401Z,4.45
2022-11-27T22:27:36.363Z,4.44
2022-11-27T22:30:10.492Z,4.43
2022-11-27T22:32:43.042Z,4.41
2022-11-27T22:35:15.787Z,4.42
2022-11-27T22:37:47.877Z,4.44
2022-11-27T22:40:20.249Z,4.39
2022-11-27T22:42:53.084Z,4.36
2022-11-27T22:45:25.154Z,4.37
2022-11-27T22:47:57.268Z,4.35
2022-11-27T22:50:29.385Z,4.32
2022-11-27T22:53:01.321Z,4.28
2022-11-27T22:55:33.311Z,4.27
2022-11-27T22:58:05.304Z,4.31
2022-11-27T23:00:37.801Z,4.31
2022-11-27T23:03:09.804Z,4.32
2022-11-27T23:05:46.439Z,4.32
2022-11-27T23:08:19.097Z,4.32
2022-11-27T23:10:52.975Z,4.32
2022-11-27T23:13:24.913Z,4.35
2022-11-27T23:15:56.903Z,4.35
2022-11-27T23:18:28.840Z,4.34
2022-11-27T23:21:00.957Z,4.34
2022-11-27T23:23:33.074Z,4.34
2022-11-27T23:26:07.445Z,4.33
2022-11-27T23:28:39.905Z,4.31
2022-11-27T23:31:29.596Z,4.37
2022-11-27T23:34:04.482Z,4.38
2022-11-27T23:36:37.189Z,4.38
2022-11-27T23:39:12.299Z,4.38
2022-11-27T23:41:44.698Z,4.38
2022-11-27T23:44:16.612Z,4.42
2022-11-27T23:46:49.213Z,4.44
2022-11-27T23:49:21.485Z,4.43
2022-11-27T23:51:53.422Z,4.43
2022-11-27T23:54:25.282Z,4.43
2022-11-27T23:56:57.451Z,4.43
2022-11-27T23:59:29.415Z,4.40
